sensor_id;sensor_type;location;lat;lon;timestamp;P1;durP1;ratioP1;P2;durP2;ratioP2
74459;SDS011;62902;48.854;9.292;2022-10-16T00:00:57;4.53;;;1.70;;
74459;SDS011;62902;48.854;9.292;2022-10-16T00:03:24;5.80;;;1.80;;
74459;SDS011;62902;48.854;9.292;2022-10-16T00:05:58;3.35;;;1.30;;
74459;SDS011;62902;48.854;9.292;2022-10-16T00:08:26;4.57;;;1.42;;
74459;SDS011;62902;48.854;9.292;2022-10-16T00:10:57;3.78;;;1.55;;
74459;SDS011;62902;48.854;9.292;2022-10-16T00:13:25;3.05;;;1.35;;
74459;SDS011;62902;48.854;9.292;2022-10-16T00:15:54;2.40;;;1.13;;
74459;SDS011;62902;48.854;9.292;2022-10-16T00:18:21;3.50;;;1.33;;
74459;SDS011;62902;48.854;9.292;2022-10-16T00:20:48;3.80;;;1.50;;
74459;SDS011;62902;48.854;9.292;2022-10-16T00:23:14;3.15;;;1.40;;
74459;SDS011;62902;48.854;9.292;2022-10-16T00:25:41;4.85;;;1.50;;
74459;SDS011;62902;48.854;9.292;2022-10-16T00:28:07;2.78;;;1.30;;
74459;SDS011;62902;48.854;9.292;2022-10-16T00:30:37;3.30;;;1.58;;
74459;SDS011;62902;48.854;9.292;2022-10-16T00:33:04;5.07;;;1.40;;
74459;SDS011;62902;48.854;9.292;2022-10-16T00:35:31;3.22;;;1.50;;
74459;SDS011;62902;48.854;9.292;2022-10-16T00:37:58;2.55;;;1.10;;
74459;SDS011;62902;48.854;9.292;2022-10-16T00:40:24;5.05;;;1.60;;
74459;SDS011;62902;48.854;9.292;2022-10-16T00:42:51;5.85;;;1.67;;
74459;SDS011;62902;48.854;9.292;2022-10-16T00:45:18;4.32;;;1.27;;
74459;SDS011;62902;48.854;9.292;2022-10-16T00:47:45;3.53;;;1.45;;
74459;SDS011;62902;48.854;9.292;2022-10-16T00:50:21;2.88;;;1.10;;
74459;SDS011;62902;48.854;9.292;2022-10-16T00:52:48;2.30;;;1.10;;
74459;SDS011;62902;48.854;9.292;2022-10-16T00:55:16;4.90;;;1.67;;
74459;SDS011;62902;48.854;9.292;2022-10-16T00:57:43;7.45;;;1.55;;
74459;SDS011;62902;48.854;9.292;2022-10-16T01:00:12;5.38;;;1.40;;
74459;SDS011;62902;48.854;9.292;2022-10-16T01:02:41;4.03;;;1.23;;
74459;SDS011;62902;48.854;9.292;2022-10-16T01:05:08;6.05;;;2.10;;
74459;SDS011;62902;48.854;9.292;2022-10-16T01:13:07;3.58;;;1.52;;
74459;SDS011;62902;48.854;9.292;2022-10-16T01:18:23;3.40;;;1.55;;
74459;SDS011;62902;48.854;9.292;2022-10-16T01:20:59;3.20;;;1.40;;
74459;SDS011;62902;48.854;9.292;2022-10-16T01:23:37;3.83;;;1.40;;
74459;SDS011;62902;48.854;9.292;2022-10-16T01:31:58;3.13;;;1.30;;
74459;SDS011;62902;48.854;9.292;2022-10-16T01:34:32;4.68;;;1.33;;
74459;SDS011;62902;48.854;9.292;2022-10-16T01:37:09;3.83;;;1.13;;
74459;SDS011;62902;48.854;9.292;2022-10-16T01:39:39;3.78;;;1.20;;
74459;SDS011;62902;48.854;9.292;2022-10-16T01:42:21;4.80;;;1.23;;
74459;SDS011;62902;48.854;9.292;2022-10-16T01:44:49;5.07;;;1.45;;
74459;SDS011;62902;48.854;9.292;2022-10-16T01:47:17;5.05;;;1.50;;
74459;SDS011;62902;48.854;9.292;2022-10-16T01:49:47;5.13;;;1.45;;
74459;SDS011;62902;48.854;9.292;2022-10-16T01:52:15;5.43;;;1.60;;
74459;SDS011;62902;48.854;9.292;2022-10-16T01:54:45;2.80;;;1.38;;
74459;SDS011;62902;48.854;9.292;2022-10-16T01:57:14;4.25;;;1.23;;
74459;SDS011;62902;48.854;9.292;2022-10-16T01:59:42;4.10;;;1.45;;
74459;SDS011;62902;48.854;9.292;2022-10-16T02:02:10;8.13;;;2.47;;
74459;SDS011;62902;48.854;9.292;2022-10-16T02:04:39;3.30;;;1.50;;
74459;SDS011;62902;48.854;9.292;2022-10-16T02:07:09;3.33;;;1.40;;
74459;SDS011;62902;48.854;9.292;2022-10-16T02:09:36;4.97;;;1.27;;
74459;SDS011;62902;48.854;9.292;2022-10-16T02:12:05;5.85;;;1.55;;
74459;SDS011;62902;48.854;9.292;2022-10-16T02:14:37;3.65;;;1.50;;
74459;SDS011;62902;48.854;9.292;2022-10-16T02:17:11;4.43;;;1.40;;
74459;SDS011;62902;48.854;9.292;2022-10-16T02:19:40;5.43;;;1.45;;
74459;SDS011;62902;48.854;9.292;2022-10-16T02:22:08;3.35;;;1.20;;
74459;SDS011;62902;48.854;9.292;2022-10-16T02:24:47;5.07;;;1.33;;
74459;SDS011;62902;48.854;9.292;2022-10-16T02:30:08;5.43;;;1.40;;
74459;SDS011;62902;48.854;9.292;2022-10-16T02:32:41;5.43;;;1.42;;
74459;SDS011;62902;48.854;9.292;2022-10-16T02:35:08;6.30;;;1.48;;
74459;SDS011;62902;48.854;9.292;2022-10-16T02:37:36;4.47;;;1.30;;
74459;SDS011;62902;48.854;9.292;2022-10-16T02:40:04;3.22;;;1.50;;
74459;SDS011;62902;48.854;9.292;2022-10-16T02:42:35;3.58;;;1.10;;
74459;SDS011;62902;48.854;9.292;2022-10-16T02:45:03;3.10;;;1.38;;
74459;SDS011;62902;48.854;9.292;2022-10-16T02:47:30;3.85;;;2.03;;
74459;SDS011;62902;48.854;9.292;2022-10-16T02:49:57;5.35;;;1.42;;
74459;SDS011;62902;48.854;9.292;2022-10-16T02:52:24;2.78;;;1.33;;
74459;SDS011;62902;48.854;9.292;2022-10-16T02:54:51;3.58;;;1.27;;
74459;SDS011;62902;48.854;9.292;2022-10-16T02:57:18;4.15;;;1.40;;
74459;SDS011;62902;48.854;9.292;2022-10-16T02:59:44;3.85;;;1.40;;
74459;SDS011;62902;48.854;9.292;2022-10-16T03:02:11;5.72;;;1.40;;
74459;SDS011;62902;48.854;9.292;2022-10-16T03:04:38;2.92;;;1.30;;
74459;SDS011;62902;48.854;9.292;2022-10-16T03:07:04;3.78;;;1.33;;
74459;SDS011;62902;48.854;9.292;2022-10-16T03:09:31;3.08;;;1.58;;
74459;SDS011;62902;48.854;9.292;2022-10-16T03:11:58;4.97;;;2.08;;
74459;SDS011;62902;48.854;9.292;2022-10-16T03:14:24;3.85;;;1.55;;
74459;SDS011;62902;48.854;9.292;2022-10-16T03:16:51;5.53;;;2.08;;
74459;SDS011;62902;48.854;9.292;2022-10-16T03:19:17;3.97;;;1.38;;
74459;SDS011;62902;48.854;9.292;2022-10-16T03:21:44;2.75;;;1.40;;
74459;SDS011;62902;48.854;9.292;2022-10-16T03:24:11;3.58;;;1.55;;
74459;SDS011;62902;48.854;9.292;2022-10-16T03:26:37;4.72;;;1.70;;
74459;SDS011;62902;48.854;9.292;2022-10-16T03:29:04;11.60;;;1.70;;
74459;SDS011;62902;48.854;9.292;2022-10-16T03:31:31;3.35;;;1.30;;
74459;SDS011;62902;48.854;9.292;2022-10-16T03:33:58;5.95;;;1.45;;
74459;SDS011;62902;48.854;9.292;2022-10-16T03:36:25;7.32;;;1.50;;
74459;SDS011;62902;48.854;9.292;2022-10-16T03:38:51;3.55;;;1.40;;
74459;SDS011;62902;48.854;9.292;2022-10-16T03:41:18;3.97;;;1.13;;
74459;SDS011;62902;48.854;9.292;2022-10-16T03:43:45;8.30;;;1.33;;
74459;SDS011;62902;48.854;9.292;2022-10-16T03:46:12;2.80;;;1.38;;
74459;SDS011;62902;48.854;9.292;2022-10-16T03:48:38;4.10;;;1.30;;
74459;SDS011;62902;48.854;9.292;2022-10-16T03:51:06;3.35;;;1.30;;
74459;SDS011;62902;48.854;9.292;2022-10-16T03:53:32;3.78;;;1.23;;
74459;SDS011;62902;48.854;9.292;2022-10-16T03:55:59;4.57;;;1.40;;
74459;SDS011;62902;48.854;9.292;2022-10-16T03:58:26;6.70;;;1.60;;
74459;SDS011;62902;48.854;9.292;2022-10-16T04:00:52;5.90;;;1.85;;
74459;SDS011;62902;48.854;9.292;2022-10-16T04:03:19;3.53;;;1.50;;
74459;SDS011;62902;48.854;9.292;2022-10-16T04:05:45;3.45;;;1.60;;
74459;SDS011;62902;48.854;9.292;2022-10-16T04:08:12;7.70;;;1.80;;
74459;SDS011;62902;48.854;9.292;2022-10-16T04:10:39;6.57;;;1.45;;
74459;SDS011;62902;48.854;9.292;2022-10-16T04:13:05;4.88;;;1.80;;
74459;SDS011;62902;48.854;9.292;2022-10-16T04:15:32;6.45;;;1.67;;
74459;SDS011;62902;48.854;9.292;2022-10-16T04:17:58;4.05;;;1.35;;
74459;SDS011;62902;48.854;9.292;2022-10-16T04:20:25;6.47;;;1.83;;
74459;SDS011;62902;48.854;9.292;2022-10-16T04:22:52;5.10;;;1.83;;
74459;SDS011;62902;48.854;9.292;2022-10-16T04:25:18;4.95;;;1.65;;
74459;SDS011;62902;48.854;9.292;2022-10-16T04:27:45;5.00;;;1.80;;
74459;SDS011;62902;48.854;9.292;2022-10-16T04:30:11;3.45;;;1.75;;
74459;SDS011;62902;48.854;9.292;2022-10-16T04:32:39;2.85;;;1.48;;
74459;SDS011;62902;48.854;9.292;2022-10-16T04:35:06;2.88;;;1.58;;
74459;SDS011;62902;48.854;9.292;2022-10-16T04:37:33;4.18;;;1.67;;
74459;SDS011;62902;48.854;9.292;2022-10-16T04:40:00;3.42;;;1.60;;
74459;SDS011;62902;48.854;9.292;2022-10-16T04:42:26;6.28;;;1.85;;
74459;SDS011;62902;48.854;9.292;2022-10-16T04:44:53;3.92;;;1.90;;
74459;SDS011;62902;48.854;9.292;2022-10-16T04:47:20;5.68;;;1.70;;
74459;SDS011;62902;48.854;9.292;2022-10-16T04:49:46;3.50;;;1.50;;
74459;SDS011;62902;48.854;9.292;2022-10-16T04:52:13;6.78;;;1.48;;
74459;SDS011;62902;48.854;9.292;2022-10-16T04:54:39;2.90;;;1.35;;
74459;SDS011;62902;48.854;9.292;2022-10-16T04:57:06;5.53;;;1.55;;
74459;SDS011;62902;48.854;9.292;2022-10-16T04:59:33;2.42;;;1.30;;
74459;SDS011;62902;48.854;9.292;2022-10-16T05:02:00;3.83;;;1.25;;
74459;SDS011;62902;48.854;9.292;2022-10-16T05:04:26;4.18;;;1.10;;
74459;SDS011;62902;48.854;9.292;2022-10-16T05:06:53;2.72;;;1.10;;
74459;SDS011;62902;48.854;9.292;2022-10-16T05:09:19;3.80;;;1.38;;
74459;SDS011;62902;48.854;9.292;2022-10-16T05:11:46;3.20;;;1.33;;
74459;SDS011;62902;48.854;9.292;2022-10-16T05:14:13;5.90;;;1.40;;
74459;SDS011;62902;48.854;9.292;2022-10-16T05:16:40;5.32;;;1.40;;
74459;SDS011;62902;48.854;9.292;2022-10-16T05:19:06;3.38;;;1.30;;
74459;SDS011;62902;48.854;9.292;2022-10-16T05:21:55;2.63;;;1.42;;
74459;SDS011;62902;48.854;9.292;2022-10-16T05:24:21;4.07;;;1.30;;
74459;SDS011;62902;48.854;9.292;2022-10-16T05:26:55;4.00;;;1.17;;
74459;SDS011;62902;48.854;9.292;2022-10-16T05:29:25;2.58;;;1.23;;
74459;SDS011;62902;48.854;9.292;2022-10-16T05:31:52;3.42;;;1.23;;
74459;SDS011;62902;48.854;9.292;2022-10-16T05:34:20;3.35;;;1.13;;
74459;SDS011;62902;48.854;9.292;2022-10-16T05:36:49;4.40;;;1.38;;
74459;SDS011;62902;48.854;9.292;2022-10-16T05:39:16;5.13;;;1.30;;
74459;SDS011;62902;48.854;9.292;2022-10-16T05:41:43;3.13;;;1.40;;
74459;SDS011;62902;48.854;9.292;2022-10-16T05:44:10;4.10;;;1.50;;
74459;SDS011;62902;48.854;9.292;2022-10-16T05:46:36;6.40;;;1.48;;
74459;SDS011;62902;48.854;9.292;2022-10-16T05:49:03;4.50;;;1.40;;
74459;SDS011;62902;48.854;9.292;2022-10-16T05:51:30;2.67;;;1.40;;
74459;SDS011;62902;48.854;9.292;2022-10-16T05:53:56;3.53;;;1.52;;
74459;SDS011;62902;48.854;9.292;2022-10-16T05:56:23;3.25;;;1.40;;
74459;SDS011;62902;48.854;9.292;2022-10-16T05:58:49;4.63;;;1.60;;
74459;SDS011;62902;48.854;9.292;2022-10-16T06:01:19;2.80;;;1.33;;
74459;SDS011;62902;48.854;9.292;2022-10-16T06:03:47;8.45;;;1.50;;
74459;SDS011;62902;48.854;9.292;2022-10-16T06:06:14;3.80;;;1.45;;
74459;SDS011;62902;48.854;9.292;2022-10-16T06:08:43;6.90;;;1.50;;
74459;SDS011;62902;48.854;9.292;2022-10-16T06:11:12;4.30;;;1.55;;
74459;SDS011;62902;48.854;9.292;2022-10-16T06:13:43;2.92;;;1.55;;
74459;SDS011;62902;48.854;9.292;2022-10-16T06:16:12;4.00;;;1.42;;
74459;SDS011;62902;48.854;9.292;2022-10-16T06:18:43;3.95;;;1.60;;
74459;SDS011;62902;48.854;9.292;2022-10-16T06:21:22;4.88;;;1.30;;
74459;SDS011;62902;48.854;9.292;2022-10-16T06:23:54;4.95;;;1.48;;
74459;SDS011;62902;48.854;9.292;2022-10-16T06:26:22;7.85;;;1.65;;
74459;SDS011;62902;48.854;9.292;2022-10-16T06:28:50;4.00;;;1.50;;
74459;SDS011;62902;48.854;9.292;2022-10-16T06:33:54;4.70;;;1.33;;
74459;SDS011;62902;48.854;9.292;2022-10-16T06:36:20;8.32;;;2.03;;
74459;SDS011;62902;48.854;9.292;2022-10-16T06:38:47;6.18;;;1.30;;
74459;SDS011;62902;48.854;9.292;2022-10-16T06:41:15;4.45;;;1.40;;
74459;SDS011;62902;48.854;9.292;2022-10-16T06:43:43;4.70;;;1.70;;
74459;SDS011;62902;48.854;9.292;2022-10-16T06:46:12;3.20;;;1.40;;
74459;SDS011;62902;48.854;9.292;2022-10-16T06:48:43;9.35;;;1.58;;
74459;SDS011;62902;48.854;9.292;2022-10-16T06:51:19;2.90;;;1.40;;
74459;SDS011;62902;48.854;9.292;2022-10-16T06:53:48;6.55;;;1.40;;
74459;SDS011;62902;48.854;9.292;2022-10-16T06:56:31;3.75;;;1.33;;
74459;SDS011;62902;48.854;9.292;2022-10-16T06:58:59;2.85;;;1.40;;
74459;SDS011;62902;48.854;9.292;2022-10-16T07:01:27;4.35;;;1.70;;
74459;SDS011;62902;48.854;9.292;2022-10-16T07:03:54;5.78;;;1.33;;
74459;SDS011;62902;48.854;9.292;2022-10-16T07:06:30;5.97;;;1.50;;
74459;SDS011;62902;48.854;9.292;2022-10-16T07:08:57;2.85;;;1.20;;
74459;SDS011;62902;48.854;9.292;2022-10-16T07:11:24;3.97;;;1.42;;
74459;SDS011;62902;48.854;9.292;2022-10-16T07:13:51;6.10;;;1.20;;
74459;SDS011;62902;48.854;9.292;2022-10-16T07:16:25;3.25;;;1.50;;
74459;SDS011;62902;48.854;9.292;2022-10-16T07:18:56;4.68;;;1.48;;
74459;SDS011;62902;48.854;9.292;2022-10-16T07:21:30;6.63;;;1.48;;
74459;SDS011;62902;48.854;9.292;2022-10-16T07:24:01;3.95;;;1.45;;
74459;SDS011;62902;48.854;9.292;2022-10-16T07:28:57;2.55;;;1.10;;
74459;SDS011;62902;48.854;9.292;2022-10-16T07:31:24;3.33;;;1.20;;
74459;SDS011;62902;48.854;9.292;2022-10-16T07:33:50;3.05;;;1.10;;
74459;SDS011;62902;48.854;9.292;2022-10-16T07:36:23;4.25;;;2.00;;
74459;SDS011;62902;48.854;9.292;2022-10-16T07:38:49;2.47;;;1.10;;
74459;SDS011;62902;48.854;9.292;2022-10-16T07:41:22;2.05;;;1.00;;
74459;SDS011;62902;48.854;9.292;2022-10-16T07:43:52;6.10;;;1.58;;
74459;SDS011;62902;48.854;9.292;2022-10-16T07:46:19;3.47;;;1.30;;
74459;SDS011;62902;48.854;9.292;2022-10-16T07:48:47;3.55;;;1.13;;
74459;SDS011;62902;48.854;9.292;2022-10-16T07:51:15;2.67;;;1.30;;
74459;SDS011;62902;48.854;9.292;2022-10-16T07:53:44;7.50;;;1.83;;
74459;SDS011;62902;48.854;9.292;2022-10-16T07:56:10;5.70;;;1.25;;
74459;SDS011;62902;48.854;9.292;2022-10-16T07:58:38;3.55;;;1.67;;
74459;SDS011;62902;48.854;9.292;2022-10-16T08:01:06;3.83;;;1.30;;
74459;SDS011;62902;48.854;9.292;2022-10-16T08:03:34;6.35;;;1.48;;
74459;SDS011;62902;48.854;9.292;2022-10-16T08:06:01;3.45;;;1.50;;
74459;SDS011;62902;48.854;9.292;2022-10-16T08:08:28;3.25;;;1.35;;
74459;SDS011;62902;48.854;9.292;2022-10-16T08:10:55;6.70;;;1.55;;
74459;SDS011;62902;48.854;9.292;2022-10-16T08:13:22;3.35;;;1.40;;
74459;SDS011;62902;48.854;9.292;2022-10-16T08:15:49;4.32;;;1.30;;
74459;SDS011;62902;48.854;9.292;2022-10-16T08:18:15;5.68;;;1.40;;
74459;SDS011;62902;48.854;9.292;2022-10-16T08:20:42;5.05;;;1.70;;
74459;SDS011;62902;48.854;9.292;2022-10-16T08:23:10;5.75;;;1.50;;
74459;SDS011;62902;48.854;9.292;2022-10-16T08:25:38;3.15;;;1.40;;
74459;SDS011;62902;48.854;9.292;2022-10-16T08:28:05;5.85;;;1.10;;
74459;SDS011;62902;48.854;9.292;2022-10-16T08:30:33;3.20;;;1.25;;
74459;SDS011;62902;48.854;9.292;2022-10-16T08:33:00;3.58;;;1.38;;
74459;SDS011;62902;48.854;9.292;2022-10-16T08:35:27;5.50;;;1.50;;
74459;SDS011;62902;48.854;9.292;2022-10-16T08:37:54;4.88;;;1.40;;
74459;SDS011;62902;48.854;9.292;2022-10-16T08:40:28;8.40;;;1.55;;
74459;SDS011;62902;48.854;9.292;2022-10-16T08:51:01;2.05;;;1.02;;
74459;SDS011;62902;48.854;9.292;2022-10-16T08:53:41;3.38;;;1.30;;
74459;SDS011;62902;48.854;9.292;2022-10-16T08:56:10;4.63;;;1.45;;
74459;SDS011;62902;48.854;9.292;2022-10-16T08:58:41;2.70;;;1.30;;
74459;SDS011;62902;48.854;9.292;2022-10-16T09:01:12;3.30;;;1.40;;
74459;SDS011;62902;48.854;9.292;2022-10-16T09:11:44;2.55;;;1.10;;
74459;SDS011;62902;48.854;9.292;2022-10-16T09:16:42;7.10;;;1.33;;
74459;SDS011;62902;48.854;9.292;2022-10-16T09:19:19;4.43;;;1.40;;
74459;SDS011;62902;48.854;9.292;2022-10-16T09:21:48;3.78;;;1.33;;
74459;SDS011;62902;48.854;9.292;2022-10-16T09:24:21;3.60;;;1.50;;
74459;SDS011;62902;48.854;9.292;2022-10-16T09:26:54;3.50;;;1.20;;
74459;SDS011;62902;48.854;9.292;2022-10-16T09:29:21;4.30;;;1.52;;
74459;SDS011;62902;48.854;9.292;2022-10-16T09:31:49;3.40;;;1.40;;
74459;SDS011;62902;48.854;9.292;2022-10-16T09:34:29;2.63;;;1.30;;
74459;SDS011;62902;48.854;9.292;2022-10-16T09:39:25;3.65;;;1.40;;
74459;SDS011;62902;48.854;9.292;2022-10-16T09:41:52;2.80;;;1.10;;
74459;SDS011;62902;48.854;9.292;2022-10-16T09:44:21;3.13;;;1.23;;
74459;SDS011;62902;48.854;9.292;2022-10-16T09:47:00;6.13;;;1.60;;
74459;SDS011;62902;48.854;9.292;2022-10-16T09:49:30;3.80;;;1.00;;
74459;SDS011;62902;48.854;9.292;2022-10-16T09:52:11;3.42;;;1.10;;
74459;SDS011;62902;48.854;9.292;2022-10-16T09:55:00;5.57;;;1.30;;
74459;SDS011;62902;48.854;9.292;2022-10-16T09:57:35;3.97;;;1.13;;
74459;SDS011;62902;48.854;9.292;2022-10-16T10:00:04;4.28;;;1.30;;
74459;SDS011;62902;48.854;9.292;2022-10-16T10:02:35;4.15;;;1.25;;
74459;SDS011;62902;48.854;9.292;2022-10-16T10:05:04;2.00;;;0.98;;
74459;SDS011;62902;48.854;9.292;2022-10-16T10:07:33;7.43;;;1.50;;
74459;SDS011;62902;48.854;9.292;2022-10-16T10:10:04;2.78;;;1.20;;
74459;SDS011;62902;48.854;9.292;2022-10-16T10:12:32;4.85;;;1.40;;
74459;SDS011;62902;48.854;9.292;2022-10-16T10:15:06;4.00;;;1.30;;
74459;SDS011;62902;48.854;9.292;2022-10-16T10:17:44;3.80;;;1.10;;
74459;SDS011;62902;48.854;9.292;2022-10-16T10:20:21;6.03;;;1.40;;
74459;SDS011;62902;48.854;9.292;2022-10-16T10:22:49;3.40;;;1.20;;
74459;SDS011;62902;48.854;9.292;2022-10-16T10:25:22;3.33;;;0.90;;
74459;SDS011;62902;48.854;9.292;2022-10-16T10:30:52;3.60;;;1.05;;
74459;SDS011;62902;48.854;9.292;2022-10-16T10:33:43;5.18;;;1.08;;
74459;SDS011;62902;48.854;9.292;2022-10-16T10:36:22;4.10;;;1.20;;
74459;SDS011;62902;48.854;9.292;2022-10-16T10:39:31;3.03;;;1.30;;
74459;SDS011;62902;48.854;9.292;2022-10-16T10:44:46;2.03;;;1.20;;
74459;SDS011;62902;48.854;9.292;2022-10-16T10:47:24;2.47;;;1.10;;
74459;SDS011;62902;48.854;9.292;2022-10-16T10:55:29;5.53;;;1.10;;
74459;SDS011;62902;48.854;9.292;2022-10-16T11:05:41;5.25;;;1.10;;
74459;SDS011;62902;48.854;9.292;2022-10-16T11:08:29;7.80;;;1.58;;
74459;SDS011;62902;48.854;9.292;2022-10-16T11:11:01;2.50;;;0.98;;
74459;SDS011;62902;48.854;9.292;2022-10-16T11:13:32;2.72;;;1.10;;
74459;SDS011;62902;48.854;9.292;2022-10-16T11:16:10;6.93;;;1.10;;
74459;SDS011;62902;48.854;9.292;2022-10-16T11:21:21;3.22;;;1.33;;
74459;SDS011;62902;48.854;9.292;2022-10-16T11:24:14;4.53;;;1.23;;
74459;SDS011;62902;48.854;9.292;2022-10-16T11:26:46;4.63;;;1.38;;
74459;SDS011;62902;48.854;9.292;2022-10-16T11:29:16;4.20;;;1.17;;
74459;SDS011;62902;48.854;9.292;2022-10-16T11:31:48;4.22;;;1.05;;
74459;SDS011;62902;48.854;9.292;2022-10-16T11:37:10;4.18;;;1.27;;
74459;SDS011;62902;48.854;9.292;2022-10-16T11:39:39;4.93;;;1.30;;
74459;SDS011;62902;48.854;9.292;2022-10-16T11:44:53;5.85;;;1.58;;
74459;SDS011;62902;48.854;9.292;2022-10-16T11:47:26;1.88;;;1.02;;
74459;SDS011;62902;48.854;9.292;2022-10-16T11:55:14;2.30;;;1.13;;
74459;SDS011;62902;48.854;9.292;2022-10-16T11:57:54;5.57;;;1.40;;
74459;SDS011;62902;48.854;9.292;2022-10-16T12:00:35;3.00;;;1.00;;
74459;SDS011;62902;48.854;9.292;2022-10-16T12:06:03;2.80;;;1.10;;
74459;SDS011;62902;48.854;9.292;2022-10-16T12:11:07;2.92;;;1.10;;
74459;SDS011;62902;48.854;9.292;2022-10-16T12:19:02;4.47;;;1.25;;
74459;SDS011;62902;48.854;9.292;2022-10-16T12:21:40;3.30;;;1.23;;
74459;SDS011;62902;48.854;9.292;2022-10-16T12:26:45;4.10;;;1.33;;
74459;SDS011;62902;48.854;9.292;2022-10-16T12:31:48;4.85;;;1.38;;
74459;SDS011;62902;48.854;9.292;2022-10-16T12:34:45;4.03;;;1.20;;
74459;SDS011;62902;48.854;9.292;2022-10-16T12:39:53;3.47;;;1.20;;
74459;SDS011;62902;48.854;9.292;2022-10-16T12:44:54;3.88;;;1.40;;
74459;SDS011;62902;48.854;9.292;2022-10-16T12:49:57;4.00;;;1.30;;
74459;SDS011;62902;48.854;9.292;2022-10-16T12:52:28;5.78;;;1.70;;
74459;SDS011;62902;48.854;9.292;2022-10-16T12:55:02;7.30;;;1.50;;
74459;SDS011;62902;48.854;9.292;2022-10-16T13:08:29;2.88;;;1.10;;
74459;SDS011;62902;48.854;9.292;2022-10-16T13:11:05;3.38;;;1.70;;
74459;SDS011;62902;48.854;9.292;2022-10-16T13:14:05;3.42;;;1.38;;
74459;SDS011;62902;48.854;9.292;2022-10-16T13:27:55;2.75;;;1.30;;
74459;SDS011;62902;48.854;9.292;2022-10-16T13:30:28;2.55;;;1.25;;
74459;SDS011;62902;48.854;9.292;2022-10-16T13:33:02;4.57;;;1.23;;
74459;SDS011;62902;48.854;9.292;2022-10-16T13:35:32;5.38;;;1.25;;
74459;SDS011;62902;48.854;9.292;2022-10-16T13:38:03;3.72;;;1.20;;
74459;SDS011;62902;48.854;9.292;2022-10-16T13:43:18;6.05;;;2.15;;
74459;SDS011;62902;48.854;9.292;2022-10-16T13:46:20;4.38;;;1.33;;
74459;SDS011;62902;48.854;9.292;2022-10-16T13:48:40;5.60;;;1.33;;
74459;SDS011;62902;48.854;9.292;2022-10-16T13:53:39;4.43;;;1.30;;
74459;SDS011;62902;48.854;9.292;2022-10-16T13:56:09;4.03;;;1.42;;
74459;SDS011;62902;48.854;9.292;2022-10-16T13:58:37;2.90;;;1.30;;
74459;SDS011;62902;48.854;9.292;2022-10-16T14:01:05;2.80;;;1.20;;
74459;SDS011;62902;48.854;9.292;2022-10-16T14:03:42;3.95;;;1.20;;
74459;SDS011;62902;48.854;9.292;2022-10-16T14:06:12;6.13;;;1.73;;
74459;SDS011;62902;48.854;9.292;2022-10-16T14:08:46;3.28;;;1.27;;
74459;SDS011;62902;48.854;9.292;2022-10-16T14:11:36;3.22;;;1.10;;
74459;SDS011;62902;48.854;9.292;2022-10-16T14:14:10;2.47;;;1.10;;
74459;SDS011;62902;48.854;9.292;2022-10-16T14:16:37;4.55;;;1.65;;
74459;SDS011;62902;48.854;9.292;2022-10-16T14:19:13;3.75;;;1.40;;
74459;SDS011;62902;48.854;9.292;2022-10-16T14:21:44;3.20;;;1.25;;
74459;SDS011;62902;48.854;9.292;2022-10-16T14:24:21;6.18;;;1.40;;
74459;SDS011;62902;48.854;9.292;2022-10-16T14:26:50;5.28;;;1.20;;
74459;SDS011;62902;48.854;9.292;2022-10-16T14:29:18;2.47;;;1.23;;
74459;SDS011;62902;48.854;9.292;2022-10-16T14:31:59;3.40;;;1.40;;
74459;SDS011;62902;48.854;9.292;2022-10-16T14:34:33;3.60;;;1.30;;
74459;SDS011;62902;48.854;9.292;2022-10-16T14:39:53;2.80;;;1.35;;
74459;SDS011;62902;48.854;9.292;2022-10-16T14:42:21;3.72;;;1.30;;
74459;SDS011;62902;48.854;9.292;2022-10-16T14:44:51;4.00;;;1.30;;
74459;SDS011;62902;48.854;9.292;2022-10-16T14:47:21;3.35;;;1.15;;
74459;SDS011;62902;48.854;9.292;2022-10-16T14:49:52;4.30;;;1.40;;
74459;SDS011;62902;48.854;9.292;2022-10-16T14:52:22;2.83;;;1.38;;
74459;SDS011;62902;48.854;9.292;2022-10-16T14:54:49;7.57;;;1.50;;
74459;SDS011;62902;48.854;9.292;2022-10-16T14:57:18;6.75;;;1.30;;
74459;SDS011;62902;48.854;9.292;2022-10-16T14:59:46;2.60;;;1.05;;
74459;SDS011;62902;48.854;9.292;2022-10-16T15:04:49;5.68;;;1.60;;
74459;SDS011;62902;48.854;9.292;2022-10-16T15:07:16;2.80;;;1.27;;
74459;SDS011;62902;48.854;9.292;2022-10-16T15:09:42;4.63;;;1.50;;
74459;SDS011;62902;48.854;9.292;2022-10-16T15:12:14;8.20;;;2.10;;
74459;SDS011;62902;48.854;9.292;2022-10-16T15:14:42;6.65;;;2.70;;
74459;SDS011;62902;48.854;9.292;2022-10-16T15:17:09;5.38;;;2.40;;
74459;SDS011;62902;48.854;9.292;2022-10-16T15:19:36;3.97;;;1.45;;
74459;SDS011;62902;48.854;9.292;2022-10-16T15:22:03;3.25;;;1.40;;
74459;SDS011;62902;48.854;9.292;2022-10-16T15:24:29;5.45;;;2.00;;
74459;SDS011;62902;48.854;9.292;2022-10-16T15:26:56;4.65;;;2.00;;
74459;SDS011;62902;48.854;9.292;2022-10-16T15:29:23;6.80;;;1.92;;
74459;SDS011;62902;48.854;9.292;2022-10-16T15:31:49;6.78;;;2.20;;
74459;SDS011;62902;48.854;9.292;2022-10-16T15:34:16;7.93;;;3.33;;
74459;SDS011;62902;48.854;9.292;2022-10-16T15:36:45;4.05;;;1.90;;
74459;SDS011;62902;48.854;9.292;2022-10-16T15:39:12;4.03;;;1.77;;
74459;SDS011;62902;48.854;9.292;2022-10-16T15:41:41;4.75;;;1.88;;
74459;SDS011;62902;48.854;9.292;2022-10-16T15:44:08;3.35;;;1.50;;
74459;SDS011;62902;48.854;9.292;2022-10-16T15:46:35;3.38;;;1.70;;
74459;SDS011;62902;48.854;9.292;2022-10-16T15:49:03;4.25;;;2.40;;
74459;SDS011;62902;48.854;9.292;2022-10-16T15:51:30;7.70;;;3.30;;
74459;SDS011;62902;48.854;9.292;2022-10-16T15:53:59;5.93;;;2.83;;
74459;SDS011;62902;48.854;9.292;2022-10-16T15:56:28;8.23;;;3.20;;
74459;SDS011;62902;48.854;9.292;2022-10-16T15:58:55;4.78;;;2.38;;
74459;SDS011;62902;48.854;9.292;2022-10-16T16:01:23;3.92;;;1.92;;
74459;SDS011;62902;48.854;9.292;2022-10-16T16:03:53;6.18;;;1.85;;
74459;SDS011;62902;48.854;9.292;2022-10-16T16:06:21;4.82;;;1.80;;
74459;SDS011;62902;48.854;9.292;2022-10-16T16:08:49;5.20;;;1.55;;
74459;SDS011;62902;48.854;9.292;2022-10-16T16:11:16;3.65;;;1.70;;
74459;SDS011;62902;48.854;9.292;2022-10-16T16:13:43;5.40;;;1.85;;
74459;SDS011;62902;48.854;9.292;2022-10-16T16:16:11;5.47;;;1.92;;
74459;SDS011;62902;48.854;9.292;2022-10-16T16:18:39;4.70;;;2.30;;
74459;SDS011;62902;48.854;9.292;2022-10-16T16:21:06;3.97;;;2.05;;
74459;SDS011;62902;48.854;9.292;2022-10-16T16:23:32;7.47;;;2.50;;
74459;SDS011;62902;48.854;9.292;2022-10-16T16:26:03;5.68;;;2.55;;
74459;SDS011;62902;48.854;9.292;2022-10-16T16:28:30;3.55;;;1.77;;
74459;SDS011;62902;48.854;9.292;2022-10-16T16:30:57;4.43;;;1.60;;
74459;SDS011;62902;48.854;9.292;2022-10-16T16:33:24;3.80;;;1.80;;
74459;SDS011;62902;48.854;9.292;2022-10-16T16:35:50;8.02;;;1.73;;
74459;SDS011;62902;48.854;9.292;2022-10-16T16:38:22;4.45;;;1.55;;
74459;SDS011;62902;48.854;9.292;2022-10-16T16:40:49;4.30;;;1.58;;
74459;SDS011;62902;48.854;9.292;2022-10-16T16:43:27;7.97;;;2.38;;
74459;SDS011;62902;48.854;9.292;2022-10-16T16:45:54;6.63;;;2.05;;
74459;SDS011;62902;48.854;9.292;2022-10-16T16:48:20;10.85;;;3.20;;
74459;SDS011;62902;48.854;9.292;2022-10-16T16:50:47;9.43;;;4.28;;
74459;SDS011;62902;48.854;9.292;2022-10-16T16:53:14;8.82;;;4.43;;
74459;SDS011;62902;48.854;9.292;2022-10-16T16:55:41;11.02;;;4.53;;
74459;SDS011;62902;48.854;9.292;2022-10-16T16:58:07;9.60;;;4.95;;
74459;SDS011;62902;48.854;9.292;2022-10-16T17:00:34;8.73;;;5.05;;
74459;SDS011;62902;48.854;9.292;2022-10-16T17:03:01;9.38;;;4.95;;
74459;SDS011;62902;48.854;9.292;2022-10-16T17:05:27;9.95;;;4.72;;
74459;SDS011;62902;48.854;9.292;2022-10-16T17:07:54;11.70;;;5.30;;
74459;SDS011;62902;48.854;9.292;2022-10-16T17:10:20;12.93;;;4.40;;
74459;SDS011;62902;48.854;9.292;2022-10-16T17:12:47;8.43;;;4.28;;
74459;SDS011;62902;48.854;9.292;2022-10-16T17:15:14;11.55;;;3.70;;